sensor_id;sensor_type;location;lat;lon;timestamp;P1;durP1;ratioP1;P2;durP2;ratioP2
3995;SDS011;2012;49.794;9.722;2023-03-17T00:01:52;12.17;;;7.83;;
3995;SDS011;2012;49.794;9.722;2023-03-17T00:04:23;9.70;;;7.50;;
3995;SDS011;2012;49.794;9.722;2023-03-17T00:06:52;9.20;;;7.10;;
3995;SDS011;2012;49.794;9.722;2023-03-17T00:09:19;9.27;;;7.67;;
3995;SDS011;2012;49.794;9.722;2023-03-17T00:11:47;12.93;;;7.70;;
3995;SDS011;2012;49.794;9.722;2023-03-17T00:14:15;11.47;;;7.60;;
3995;SDS011;2012;49.794;9.722;2023-03-17T00:16:44;10.97;;;7.37;;
3995;SDS011;2012;49.794;9.722;2023-03-17T00:19:15;11.40;;;7.00;;
3995;SDS011;2012;49.794;9.722;2023-03-17T00:21:55;7.63;;;6.83;;
3995;SDS011;2012;49.794;9.722;2023-03-17T00:24:23;13.27;;;7.77;;
3995;SDS011;2012;49.794;9.722;2023-03-17T00:26:49;8.63;;;7.13;;
3995;SDS011;2012;49.794;9.722;2023-03-17T00:29:16;11.67;;;9.40;;
3995;SDS011;2012;49.794;9.722;2023-03-17T00:31:43;11.07;;;6.43;;
3995;SDS011;2012;49.794;9.722;2023-03-17T00:34:11;8.40;;;6.60;;
3995;SDS011;2012;49.794;9.722;2023-03-17T00:36:41;12.87;;;8.00;;
3995;SDS011;2012;49.794;9.722;2023-03-17T00:39:12;8.80;;;6.57;;
3995;SDS011;2012;49.794;9.722;2023-03-17T00:41:42;9.17;;;6.80;;
3995;SDS011;2012;49.794;9.722;2023-03-17T00:44:09;13.33;;;7.10;;
3995;SDS011;2012;49.794;9.722;2023-03-17T00:46:36;9.73;;;7.10;;
3995;SDS011;2012;49.794;9.722;2023-03-17T00:49:25;8.47;;;7.13;;
3995;SDS011;2012;49.794;9.722;2023-03-17T00:51:52;8.10;;;6.40;;
3995;SDS011;2012;49.794;9.722;2023-03-17T00:54:19;8.30;;;6.70;;
3995;SDS011;2012;49.794;9.722;2023-03-17T00:56:46;8.07;;;6.63;;
3995;SDS011;2012;49.794;9.722;2023-03-17T00:59:28;12.23;;;6.90;;
3995;SDS011;2012;49.794;9.722;2023-03-17T01:02:02;11.37;;;7.17;;
3995;SDS011;2012;49.794;9.722;2023-03-17T01:04:29;8.00;;;6.13;;
3995;SDS011;2012;49.794;9.722;2023-03-17T01:06:57;9.77;;;7.30;;
3995;SDS011;2012;49.794;9.722;2023-03-17T01:09:24;9.73;;;7.30;;
3995;SDS011;2012;49.794;9.722;2023-03-17T01:11:52;8.43;;;6.80;;
3995;SDS011;2012;49.794;9.722;2023-03-17T01:14:20;8.90;;;6.40;;
3995;SDS011;2012;49.794;9.722;2023-03-17T01:16:47;11.17;;;7.13;;
3995;SDS011;2012;49.794;9.722;2023-03-17T01:19:15;7.40;;;6.27;;
3995;SDS011;2012;49.794;9.722;2023-03-17T01:21:43;10.53;;;6.23;;
3995;SDS011;2012;49.794;9.722;2023-03-17T01:24:11;11.77;;;6.60;;
3995;SDS011;2012;49.794;9.722;2023-03-17T01:26:38;8.23;;;6.47;;
3995;SDS011;2012;49.794;9.722;2023-03-17T01:29:05;10.40;;;6.57;;
3995;SDS011;2012;49.794;9.722;2023-03-17T01:31:33;8.57;;;6.93;;
3995;SDS011;2012;49.794;9.722;2023-03-17T01:34:00;8.43;;;5.97;;
3995;SDS011;2012;49.794;9.722;2023-03-17T01:36:27;9.50;;;6.73;;
3995;SDS011;2012;49.794;9.722;2023-03-17T01:38:54;10.17;;;6.70;;
3995;SDS011;2012;49.794;9.722;2023-03-17T01:41:21;7.67;;;6.20;;
3995;SDS011;2012;49.794;9.722;2023-03-17T01:43:47;7.70;;;6.27;;
3995;SDS011;2012;49.794;9.722;2023-03-17T01:46:18;10.10;;;6.93;;
3995;SDS011;2012;49.794;9.722;2023-03-17T01:51:20;10.60;;;6.67;;
3995;SDS011;2012;49.794;9.722;2023-03-17T01:53:57;11.13;;;7.40;;
3995;SDS011;2012;49.794;9.722;2023-03-17T01:56:26;8.13;;;6.40;;
3995;SDS011;2012;49.794;9.722;2023-03-17T01:58:54;9.20;;;7.10;;
3995;SDS011;2012;49.794;9.722;2023-03-17T02:01:25;6.30;;;5.57;;
3995;SDS011;2012;49.794;9.722;2023-03-17T02:03:58;10.13;;;6.87;;
3995;SDS011;2012;49.794;9.722;2023-03-17T02:06:25;10.83;;;7.10;;
3995;SDS011;2012;49.794;9.722;2023-03-17T02:08:52;10.33;;;6.70;;
3995;SDS011;2012;49.794;9.722;2023-03-17T02:11:19;9.70;;;7.30;;
3995;SDS011;2012;49.794;9.722;2023-03-17T02:13:46;10.07;;;6.60;;
3995;SDS011;2012;49.794;9.722;2023-03-17T02:16:14;8.20;;;6.73;;
3995;SDS011;2012;49.794;9.722;2023-03-17T02:18:42;10.10;;;6.30;;
3995;SDS011;2012;49.794;9.722;2023-03-17T02:23:55;7.00;;;6.13;;
3995;SDS011;2012;49.794;9.722;2023-03-17T02:26:22;6.87;;;6.17;;
3995;SDS011;2012;49.794;9.722;2023-03-17T02:28:51;8.60;;;5.80;;
3995;SDS011;2012;49.794;9.722;2023-03-17T02:31:18;8.40;;;6.20;;
3995;SDS011;2012;49.794;9.722;2023-03-17T02:33:46;10.27;;;6.10;;
3995;SDS011;2012;49.794;9.722;2023-03-17T02:36:12;8.40;;;6.10;;
3995;SDS011;2012;49.794;9.722;2023-03-17T02:38:40;7.60;;;5.80;;
3995;SDS011;2012;49.794;9.722;2023-03-17T02:41:07;7.67;;;5.80;;
3995;SDS011;2012;49.794;9.722;2023-03-17T02:43:34;7.40;;;5.77;;
3995;SDS011;2012;49.794;9.722;2023-03-17T02:46:02;8.33;;;5.20;;
3995;SDS011;2012;49.794;9.722;2023-03-17T02:48:31;8.37;;;5.73;;
3995;SDS011;2012;49.794;9.722;2023-03-17T02:51:00;7.63;;;5.13;;
3995;SDS011;2012;49.794;9.722;2023-03-17T02:53:27;8.97;;;6.67;;
3995;SDS011;2012;49.794;9.722;2023-03-17T02:55:53;7.97;;;6.07;;
3995;SDS011;2012;49.794;9.722;2023-03-17T02:58:21;6.73;;;6.00;;
3995;SDS011;2012;49.794;9.722;2023-03-17T03:00:47;9.77;;;6.97;;
3995;SDS011;2012;49.794;9.722;2023-03-17T03:03:14;10.40;;;7.17;;
3995;SDS011;2012;49.794;9.722;2023-03-17T03:05:41;7.50;;;5.37;;
3995;SDS011;2012;49.794;9.722;2023-03-17T03:08:08;9.07;;;6.50;;
3995;SDS011;2012;49.794;9.722;2023-03-17T03:10:35;9.27;;;6.20;;
3995;SDS011;2012;49.794;9.722;2023-03-17T03:13:02;9.40;;;6.43;;
3995;SDS011;2012;49.794;9.722;2023-03-17T03:15:29;9.13;;;5.80;;
3995;SDS011;2012;49.794;9.722;2023-03-17T03:17:56;7.30;;;5.87;;
3995;SDS011;2012;49.794;9.722;2023-03-17T03:20:22;7.53;;;5.90;;
3995;SDS011;2012;49.794;9.722;2023-03-17T03:22:50;9.17;;;6.20;;
3995;SDS011;2012;49.794;9.722;2023-03-17T03:25:17;7.20;;;5.87;;
3995;SDS011;2012;49.794;9.722;2023-03-17T03:27:44;9.53;;;6.10;;
3995;SDS011;2012;49.794;9.722;2023-03-17T03:30:11;7.23;;;6.20;;
3995;SDS011;2012;49.794;9.722;2023-03-17T03:32:38;5.47;;;4.97;;
3995;SDS011;2012;49.794;9.722;2023-03-17T03:35:05;7.80;;;5.73;;
3995;SDS011;2012;49.794;9.722;2023-03-17T03:37:33;6.90;;;5.13;;
3995;SDS011;2012;49.794;9.722;2023-03-17T03:40:00;8.20;;;5.07;;
3995;SDS011;2012;49.794;9.722;2023-03-17T03:42:27;7.63;;;5.90;;
3995;SDS011;2012;49.794;9.722;2023-03-17T03:44:54;7.53;;;5.67;;
3995;SDS011;2012;49.794;9.722;2023-03-17T03:47:20;6.87;;;5.47;;
3995;SDS011;2012;49.794;9.722;2023-03-17T03:49:47;8.47;;;5.73;;
3995;SDS011;2012;49.794;9.722;2023-03-17T03:52:14;7.53;;;5.60;;
3995;SDS011;2012;49.794;9.722;2023-03-17T03:54:40;8.13;;;5.57;;
3995;SDS011;2012;49.794;9.722;2023-03-17T03:57:07;9.13;;;5.27;;
3995;SDS011;2012;49.794;9.722;2023-03-17T03:59:34;8.77;;;4.90;;
3995;SDS011;2012;49.794;9.722;2023-03-17T04:02:00;5.70;;;5.20;;
3995;SDS011;2012;49.794;9.722;2023-03-17T04:04:27;5.80;;;4.70;;
3995;SDS011;2012;49.794;9.722;2023-03-17T04:06:54;6.60;;;4.90;;
3995;SDS011;2012;49.794;9.722;2023-03-17T04:09:21;11.10;;;4.77;;
3995;SDS011;2012;49.794;9.722;2023-03-17T04:11:48;6.97;;;4.90;;
3995;SDS011;2012;49.794;9.722;2023-03-17T04:14:15;7.17;;;5.27;;
3995;SDS011;2012;49.794;9.722;2023-03-17T04:16:41;5.67;;;4.80;;
3995;SDS011;2012;49.794;9.722;2023-03-17T04:19:09;7.70;;;5.43;;
3995;SDS011;2012;49.794;9.722;2023-03-17T04:21:36;10.53;;;5.13;;
3995;SDS011;2012;49.794;9.722;2023-03-17T04:24:03;6.57;;;5.50;;
3995;SDS011;2012;49.794;9.722;2023-03-17T04:26:30;11.03;;;5.20;;
3995;SDS011;2012;49.794;9.722;2023-03-17T04:28:57;7.43;;;4.70;;
3995;SDS011;2012;49.794;9.722;2023-03-17T04:31:24;8.73;;;5.33;;
3995;SDS011;2012;49.794;9.722;2023-03-17T04:33:51;7.23;;;4.63;;
3995;SDS011;2012;49.794;9.722;2023-03-17T04:36:19;6.90;;;5.40;;
3995;SDS011;2012;49.794;9.722;2023-03-17T04:38:48;6.57;;;4.50;;
3995;SDS011;2012;49.794;9.722;2023-03-17T04:41:15;4.37;;;3.73;;
3995;SDS011;2012;49.794;9.722;2023-03-17T04:43:43;7.97;;;5.23;;
3995;SDS011;2012;49.794;9.722;2023-03-17T04:46:09;11.00;;;6.93;;
3995;SDS011;2012;49.794;9.722;2023-03-17T04:48:36;15.30;;;9.47;;
3995;SDS011;2012;49.794;9.722;2023-03-17T04:51:03;17.03;;;10.43;;
3995;SDS011;2012;49.794;9.722;2023-03-17T04:53:30;13.00;;;8.63;;
3995;SDS011;2012;49.794;9.722;2023-03-17T04:55:57;13.60;;;7.97;;
3995;SDS011;2012;49.794;9.722;2023-03-17T04:58:24;7.77;;;6.40;;
3995;SDS011;2012;49.794;9.722;2023-03-17T05:00:56;15.10;;;7.60;;
3995;SDS011;2012;49.794;9.722;2023-03-17T05:03:23;7.73;;;5.87;;
3995;SDS011;2012;49.794;9.722;2023-03-17T05:05:52;8.00;;;6.20;;
3995;SDS011;2012;49.794;9.722;2023-03-17T05:08:19;7.23;;;5.57;;
3995;SDS011;2012;49.794;9.722;2023-03-17T05:10:46;10.93;;;5.60;;
3995;SDS011;2012;49.794;9.722;2023-03-17T05:13:12;10.80;;;5.87;;
3995;SDS011;2012;49.794;9.722;2023-03-17T05:15:39;11.50;;;7.50;;
3995;SDS011;2012;49.794;9.722;2023-03-17T05:18:12;11.13;;;7.87;;
3995;SDS011;2012;49.794;9.722;2023-03-17T05:20:39;17.77;;;9.20;;
3995;SDS011;2012;49.794;9.722;2023-03-17T05:23:06;14.90;;;9.63;;
3995;SDS011;2012;49.794;9.722;2023-03-17T05:25:33;30.40;;;14.83;;
3995;SDS011;2012;49.794;9.722;2023-03-17T05:28:00;23.30;;;14.17;;
3995;SDS011;2012;49.794;9.722;2023-03-17T05:30:27;24.03;;;13.10;;
3995;SDS011;2012;49.794;9.722;2023-03-17T05:32:55;23.17;;;12.63;;
3995;SDS011;2012;49.794;9.722;2023-03-17T05:35:21;21.83;;;12.27;;
3995;SDS011;2012;49.794;9.722;2023-03-17T05:37:48;31.80;;;16.00;;
3995;SDS011;2012;49.794;9.722;2023-03-17T05:40:15;16.97;;;9.33;;
3995;SDS011;2012;49.794;9.722;2023-03-17T05:42:42;15.60;;;10.10;;
3995;SDS011;2012;49.794;9.722;2023-03-17T05:45:09;19.23;;;9.20;;
3995;SDS011;2012;49.794;9.722;2023-03-17T05:47:36;20.60;;;10.77;;
3995;SDS011;2012;49.794;9.722;2023-03-17T05:50:05;21.20;;;11.93;;
3995;SDS011;2012;49.794;9.722;2023-03-17T05:52:33;29.10;;;13.40;;
3995;SDS011;2012;49.794;9.722;2023-03-17T05:54:59;24.73;;;12.17;;
3995;SDS011;2012;49.794;9.722;2023-03-17T05:57:26;18.47;;;9.30;;
3995;SDS011;2012;49.794;9.722;2023-03-17T05:59:53;13.63;;;8.43;;
3995;SDS011;2012;49.794;9.722;2023-03-17T06:02:20;17.73;;;9.20;;
3995;SDS011;2012;49.794;9.722;2023-03-17T06:04:47;12.43;;;8.50;;
3995;SDS011;2012;49.794;9.722;2023-03-17T06:07:14;13.57;;;8.53;;
3995;SDS011;2012;49.794;9.722;2023-03-17T06:09:41;15.93;;;8.33;;
3995;SDS011;2012;49.794;9.722;2023-03-17T06:12:07;10.20;;;7.27;;
3995;SDS011;2012;49.794;9.722;2023-03-17T06:14:34;9.83;;;6.07;;
3995;SDS011;2012;49.794;9.722;2023-03-17T06:17:01;14.20;;;7.10;;
3995;SDS011;2012;49.794;9.722;2023-03-17T06:19:28;16.30;;;6.70;;
3995;SDS011;2012;49.794;9.722;2023-03-17T06:21:55;8.10;;;6.23;;
3995;SDS011;2012;49.794;9.722;2023-03-17T06:24:22;11.13;;;6.07;;
3995;SDS011;2012;49.794;9.722;2023-03-17T06:26:48;8.83;;;6.30;;
3995;SDS011;2012;49.794;9.722;2023-03-17T06:29:16;14.20;;;5.80;;
3995;SDS011;2012;49.794;9.722;2023-03-17T06:31:43;13.37;;;6.10;;
3995;SDS011;2012;49.794;9.722;2023-03-17T06:34:16;6.37;;;5.00;;
3995;SDS011;2012;49.794;9.722;2023-03-17T06:36:43;5.70;;;5.10;;
3995;SDS011;2012;49.794;9.722;2023-03-17T06:39:11;10.57;;;5.43;;
3995;SDS011;2012;49.794;9.722;2023-03-17T06:41:38;8.53;;;5.80;;
3995;SDS011;2012;49.794;9.722;2023-03-17T06:44:06;9.03;;;5.80;;
3995;SDS011;2012;49.794;9.722;2023-03-17T06:46:34;6.30;;;5.40;;
3995;SDS011;2012;49.794;9.722;2023-03-17T06:49:02;7.50;;;6.00;;
3995;SDS011;2012;49.794;9.722;2023-03-17T06:51:29;12.90;;;5.80;;
3995;SDS011;2012;49.794;9.722;2023-03-17T06:53:57;10.63;;;5.70;;
3995;SDS011;2012;49.794;9.722;2023-03-17T06:56:24;7.17;;;5.10;;
3995;SDS011;2012;49.794;9.722;2023-03-17T06:58:55;6.47;;;4.57;;
3995;SDS011;2012;49.794;9.722;2023-03-17T07:01:23;9.50;;;4.57;;
3995;SDS011;2012;49.794;9.722;2023-03-17T07:03:50;10.83;;;4.40;;
3995;SDS011;2012;49.794;9.722;2023-03-17T07:06:17;11.43;;;4.73;;
3995;SDS011;2012;49.794;9.722;2023-03-17T07:08:44;12.00;;;5.60;;
3995;SDS011;2012;49.794;9.722;2023-03-17T07:11:12;19.37;;;6.77;;
3995;SDS011;2012;49.794;9.722;2023-03-17T07:13:38;18.27;;;5.53;;
3995;SDS011;2012;49.794;9.722;2023-03-17T07:16:06;9.83;;;4.53;;
3995;SDS011;2012;49.794;9.722;2023-03-17T07:18:33;8.43;;;4.10;;
3995;SDS011;2012;49.794;9.722;2023-03-17T07:21:00;14.33;;;5.80;;
3995;SDS011;2012;49.794;9.722;2023-03-17T07:23:27;12.00;;;5.60;;
3995;SDS011;2012;49.794;9.722;2023-03-17T07:25:55;16.97;;;6.37;;
3995;SDS011;2012;49.794;9.722;2023-03-17T07:28:24;12.30;;;6.23;;
3995;SDS011;2012;49.794;9.722;2023-03-17T07:30:51;10.27;;;5.70;;
3995;SDS011;2012;49.794;9.722;2023-03-17T07:33:18;12.67;;;5.43;;
3995;SDS011;2012;49.794;9.722;2023-03-17T07:35:48;12.17;;;5.40;;
3995;SDS011;2012;49.794;9.722;2023-03-17T07:38:15;8.10;;;4.33;;
3995;SDS011;2012;49.794;9.722;2023-03-17T07:40:44;9.00;;;3.87;;
3995;SDS011;2012;49.794;9.722;2023-03-17T07:43:13;7.80;;;3.50;;
3995;SDS011;2012;49.794;9.722;2023-03-17T07:45:42;9.40;;;4.13;;
3995;SDS011;2012;49.794;9.722;2023-03-17T07:48:09;8.57;;;4.60;;
3995;SDS011;2012;49.794;9.722;2023-03-17T07:50:36;10.20;;;4.83;;
3995;SDS011;2012;49.794;9.722;2023-03-17T07:53:03;9.80;;;4.07;;
3995;SDS011;2012;49.794;9.722;2023-03-17T07:55:30;9.50;;;5.87;;
3995;SDS011;2012;49.794;9.722;2023-03-17T07:57:58;9.33;;;5.33;;
3995;SDS011;2012;49.794;9.722;2023-03-17T08:00:25;18.97;;;4.07;;
3995;SDS011;2012;49.794;9.722;2023-03-17T08:02:54;8.80;;;4.43;;
3995;SDS011;2012;49.794;9.722;2023-03-17T08:05:35;5.60;;;3.60;;
3995;SDS011;2012;49.794;9.722;2023-03-17T08:08:02;15.67;;;4.43;;
3995;SDS011;2012;49.794;9.722;2023-03-17T08:10:30;6.03;;;3.80;;
3995;SDS011;2012;49.794;9.722;2023-03-17T08:12:57;7.50;;;3.77;;
3995;SDS011;2012;49.794;9.722;2023-03-17T08:15:24;13.57;;;3.90;;
3995;SDS011;2012;49.794;9.722;2023-03-17T08:17:50;6.93;;;4.00;;
3995;SDS011;2012;49.794;9.722;2023-03-17T08:20:18;9.00;;;4.40;;
3995;SDS011;2012;49.794;9.722;2023-03-17T08:22:45;8.20;;;3.97;;
3995;SDS011;2012;49.794;9.722;2023-03-17T08:25:12;5.50;;;4.23;;
3995;SDS011;2012;49.794;9.722;2023-03-17T08:27:39;10.10;;;4.60;;
3995;SDS011;2012;49.794;9.722;2023-03-17T08:30:07;10.20;;;5.20;;
3995;SDS011;2012;49.794;9.722;2023-03-17T08:32:34;12.30;;;4.57;;
3995;SDS011;2012;49.794;9.722;2023-03-17T08:35:01;9.43;;;4.70;;
3995;SDS011;2012;49.794;9.722;2023-03-17T08:37:28;4.77;;;3.80;;
3995;SDS011;2012;49.794;9.722;2023-03-17T08:39:55;4.77;;;3.60;;
3995;SDS011;2012;49.794;9.722;2023-03-17T08:42:22;4.73;;;3.47;;
3995;SDS011;2012;49.794;9.722;2023-03-17T08:44:49;5.07;;;4.53;;
3995;SDS011;2012;49.794;9.722;2023-03-17T08:47:16;3.40;;;3.07;;
3995;SDS011;2012;49.794;9.722;2023-03-17T08:49:43;7.27;;;4.07;;
3995;SDS011;2012;49.794;9.722;2023-03-17T08:52:10;8.03;;;3.87;;
3995;SDS011;2012;49.794;9.722;2023-03-17T08:54:36;11.83;;;4.63;;
3995;SDS011;2012;49.794;9.722;2023-03-17T08:57:03;5.80;;;3.93;;
3995;SDS011;2012;49.794;9.722;2023-03-17T08:59:30;6.80;;;3.20;;
3995;SDS011;2012;49.794;9.722;2023-03-17T09:01:57;5.90;;;4.27;;
3995;SDS011;2012;49.794;9.722;2023-03-17T09:04:25;7.33;;;3.30;;
3995;SDS011;2012;49.794;9.722;2023-03-17T09:06:53;14.13;;;4.00;;
3995;SDS011;2012;49.794;9.722;2023-03-17T09:09:29;9.03;;;4.03;;
3995;SDS011;2012;49.794;9.722;2023-03-17T09:11:56;8.40;;;3.33;;
3995;SDS011;2012;49.794;9.722;2023-03-17T09:14:23;6.73;;;4.23;;
3995;SDS011;2012;49.794;9.722;2023-03-17T09:16:50;6.10;;;3.80;;
3995;SDS011;2012;49.794;9.722;2023-03-17T09:19:17;5.47;;;3.77;;
3995;SDS011;2012;49.794;9.722;2023-03-17T09:21:44;6.80;;;3.43;;
3995;SDS011;2012;49.794;9.722;2023-03-17T09:24:11;4.57;;;3.50;;
3995;SDS011;2012;49.794;9.722;2023-03-17T09:26:38;6.13;;;4.57;;
3995;SDS011;2012;49.794;9.722;2023-03-17T09:29:05;3.70;;;3.40;;
3995;SDS011;2012;49.794;9.722;2023-03-17T09:31:33;9.93;;;3.70;;
3995;SDS011;2012;49.794;9.722;2023-03-17T09:34:03;4.37;;;3.43;;
3995;SDS011;2012;49.794;9.722;2023-03-17T09:36:31;7.20;;;4.00;;
3995;SDS011;2012;49.794;9.722;2023-03-17T09:38:58;4.70;;;3.27;;
3995;SDS011;2012;49.794;9.722;2023-03-17T09:41:29;10.93;;;3.90;;
3995;SDS011;2012;49.794;9.722;2023-03-17T09:49:23;8.00;;;5.13;;
3995;SDS011;2012;49.794;9.722;2023-03-17T09:52:02;14.63;;;6.30;;
3995;SDS011;2012;49.794;9.722;2023-03-17T09:54:30;7.10;;;4.07;;
3995;SDS011;2012;49.794;9.722;2023-03-17T09:57:15;4.13;;;3.33;;
3995;SDS011;2012;49.794;9.722;2023-03-17T09:59:51;6.53;;;4.43;;
3995;SDS011;2012;49.794;9.722;2023-03-17T10:02:30;8.33;;;3.93;;
3995;SDS011;2012;49.794;9.722;2023-03-17T10:05:06;8.43;;;3.27;;
3995;SDS011;2012;49.794;9.722;2023-03-17T10:10:30;5.73;;;3.60;;
3995;SDS011;2012;49.794;9.722;2023-03-17T10:13:46;5.80;;;4.00;;
3995;SDS011;2012;49.794;9.722;2023-03-17T10:21:48;6.03;;;3.03;;
3995;SDS011;2012;49.794;9.722;2023-03-17T10:24:19;4.07;;;3.13;;
3995;SDS011;2012;49.794;9.722;2023-03-17T10:26:49;7.43;;;3.30;;
3995;SDS011;2012;49.794;9.722;2023-03-17T10:29:19;5.00;;;3.83;;
3995;SDS011;2012;49.794;9.722;2023-03-17T10:31:48;10.33;;;5.13;;
3995;SDS011;2012;49.794;9.722;2023-03-17T10:34:21;10.67;;;3.47;;
3995;SDS011;2012;49.794;9.722;2023-03-17T10:36:54;6.53;;;4.10;;
3995;SDS011;2012;49.794;9.722;2023-03-17T10:39:26;12.33;;;4.13;;
3995;SDS011;2012;49.794;9.722;2023-03-17T10:47:30;10.60;;;3.50;;
3995;SDS011;2012;49.794;9.722;2023-03-17T10:50:01;11.90;;;3.70;;
3995;SDS011;2012;49.794;9.722;2023-03-17T10:52:43;8.27;;;2.97;;
3995;SDS011;2012;49.794;9.722;2023-03-17T10:55:16;5.67;;;3.57;;
3995;SDS011;2012;49.794;9.722;2023-03-17T10:58:05;7.17;;;3.27;;
3995;SDS011;2012;49.794;9.722;2023-03-17T11:00:33;4.00;;;3.03;;
3995;SDS011;2012;49.794;9.722;2023-03-17T11:03:10;7.73;;;3.13;;
3995;SDS011;2012;49.794;9.722;2023-03-17T11:05:54;3.53;;;2.80;;
3995;SDS011;2012;49.794;9.722;2023-03-17T11:08:45;5.30;;;2.87;;
3995;SDS011;2012;49.794;9.722;2023-03-17T11:11:31;3.83;;;2.53;;
3995;SDS011;2012;49.794;9.722;2023-03-17T11:14:03;5.67;;;3.00;;
3995;SDS011;2012;49.794;9.722;2023-03-17T11:16:32;6.47;;;3.50;;
3995;SDS011;2012;49.794;9.722;2023-03-17T11:19:02;6.93;;;3.60;;
3995;SDS011;2012;49.794;9.722;2023-03-17T11:24:30;3.33;;;2.70;;
3995;SDS011;2012;49.794;9.722;2023-03-17T11:27:19;3.57;;;2.17;;
3995;SDS011;2012;49.794;9.722;2023-03-17T11:35:28;6.80;;;3.40;;
3995;SDS011;2012;49.794;9.722;2023-03-17T11:40:53;5.50;;;2.83;;
3995;SDS011;2012;49.794;9.722;2023-03-17T11:46:29;5.17;;;2.90;;
3995;SDS011;2012;49.794;9.722;2023-03-17T11:49:06;2.70;;;2.47;;
3995;SDS011;2012;49.794;9.722;2023-03-17T11:54:39;3.17;;;2.87;;
3995;SDS011;2012;49.794;9.722;2023-03-17T11:57:36;7.73;;;2.70;;
3995;SDS011;2012;49.794;9.722;2023-03-17T12:00:28;5.80;;;2.70;;
3995;SDS011;2012;49.794;9.722;2023-03-17T12:03:12;3.07;;;2.00;;
3995;SDS011;2012;49.794;9.722;2023-03-17T12:05:40;2.60;;;2.40;;
3995;SDS011;2012;49.794;9.722;2023-03-17T12:08:13;5.43;;;2.70;;
3995;SDS011;2012;49.794;9.722;2023-03-17T12:10:52;2.93;;;2.63;;
3995;SDS011;2012;49.794;9.722;2023-03-17T12:13:22;3.70;;;3.07;;
3995;SDS011;2012;49.794;9.722;2023-03-17T12:16:09;3.73;;;2.57;;
3995;SDS011;2012;49.794;9.722;2023-03-17T12:18:48;6.27;;;2.70;;
3995;SDS011;2012;49.794;9.722;2023-03-17T12:21:34;4.73;;;2.40;;
3995;SDS011;2012;49.794;9.722;2023-03-17T12:24:09;5.27;;;2.70;;
3995;SDS011;2012;49.794;9.722;2023-03-17T12:26:39;8.93;;;3.40;;
3995;SDS011;2012;49.794;9.722;2023-03-17T12:29:19;4.80;;;2.70;;
3995;SDS011;2012;49.794;9.722;2023-03-17T12:32:19;3.93;;;2.87;;
3995;SDS011;2012;49.794;9.722;2023-03-17T12:34:59;3.40;;;2.60;;
3995;SDS011;2012;49.794;9.722;2023-03-17T12:37:36;3.03;;;2.73;;
3995;SDS011;2012;49.794;9.722;2023-03-17T12:40:09;7.30;;;2.70;;
3995;SDS011;2012;49.794;9.722;2023-03-17T12:48:18;5.57;;;3.03;;
3995;SDS011;2012;49.794;9.722;2023-03-17T12:53:58;7.40;;;2.80;;
3995;SDS011;2012;49.794;9.722;2023-03-17T12:56:26;3.23;;;2.90;;
3995;SDS011;2012;49.794;9.722;2023-03-17T12:59:02;3.43;;;2.20;;
3995;SDS011;2012;49.794;9.722;2023-03-17T13:01:44;5.60;;;3.27;;
3995;SDS011;2012;49.794;9.722;2023-03-17T13:04:32;5.70;;;3.23;;
3995;SDS011;2012;49.794;9.722;2023-03-17T13:07:11;12.17;;;3.20;;
3995;SDS011;2012;49.794;9.722;2023-03-17T13:09:43;6.70;;;2.77;;
3995;SDS011;2012;49.794;9.722;2023-03-17T13:15:21;3.73;;;2.87;;
3995;SDS011;2012;49.794;9.722;2023-03-17T13:17:48;4.60;;;2.30;;
3995;SDS011;2012;49.794;9.722;2023-03-17T13:20:17;4.40;;;2.47;;
3995;SDS011;2012;49.794;9.722;2023-03-17T13:25:51;5.30;;;3.40;;
3995;SDS011;2012;49.794;9.722;2023-03-17T13:28:23;4.53;;;2.43;;
3995;SDS011;2012;49.794;9.722;2023-03-17T13:33:43;3.80;;;3.23;;
3995;SDS011;2012;49.794;9.722;2023-03-17T13:44:53;4.17;;;3.10;;
3995;SDS011;2012;49.794;9.722;2023-03-17T13:47:46;4.63;;;3.33;;
3995;SDS011;2012;49.794;9.722;2023-03-17T13:50:20;3.63;;;3.20;;
3995;SDS011;2012;49.794;9.722;2023-03-17T13:52:53;4.70;;;2.80;;
3995;SDS011;2012;49.794;9.722;2023-03-17T14:00:44;3.87;;;2.50;;
3995;SDS011;2012;49.794;9.722;2023-03-17T14:05:50;9.47;;;2.90;;
3995;SDS011;2012;49.794;9.722;2023-03-17T14:08:23;2.93;;;2.70;;
3995;SDS011;2012;49.794;9.722;2023-03-17T14:10:56;5.13;;;3.20;;
3995;SDS011;2012;49.794;9.722;2023-03-17T14:16:31;5.30;;;3.37;;
3995;SDS011;2012;49.794;9.722;2023-03-17T14:19:15;5.63;;;2.70;;
3995;SDS011;2012;49.794;9.722;2023-03-17T14:21:46;5.90;;;3.30;;
3995;SDS011;2012;49.794;9.722;2023-03-17T14:24:16;3.20;;;2.80;;
3995;SDS011;2012;49.794;9.722;2023-03-17T14:26:43;4.50;;;2.90;;
3995;SDS011;2012;49.794;9.722;2023-03-17T14:29:11;4.43;;;3.10;;
3995;SDS011;2012;49.794;9.722;2023-03-17T14:31:45;7.00;;;3.10;;
3995;SDS011;2012;49.794;9.722;2023-03-17T14:34:13;2.97;;;2.40;;
3995;SDS011;2012;49.794;9.722;2023-03-17T14:36:41;5.80;;;3.10;;
3995;SDS011;2012;49.794;9.722;2023-03-17T14:39:17;5.40;;;3.20;;
3995;SDS011;2012;49.794;9.722;2023-03-17T14:42:03;3.40;;;2.40;;
3995;SDS011;2012;49.794;9.722;2023-03-17T14:44:37;4.83;;;3.10;;
3995;SDS011;2012;49.794;9.722;2023-03-17T14:47:13;2.73;;;2.33;;
3995;SDS011;2012;49.794;9.722;2023-03-17T14:49:52;9.40;;;2.23;;
3995;SDS011;2012;49.794;9.722;2023-03-17T14:52:20;8.70;;;2.77;;
3995;SDS011;2012;49.794;9.722;2023-03-17T14:54:53;4.07;;;2.20;;
3995;SDS011;2012;49.794;9.722;2023-03-17T14:57:26;5.00;;;2.27;;
3995;SDS011;2012;49.794;9.722;2023-03-17T14:59:58;3.27;;;2.30;;
3995;SDS011;2012;49.794;9.722;2023-03-17T15:02:33;6.40;;;2.10;;
3995;SDS011;2012;49.794;9.722;2023-03-17T15:07:53;8.53;;;4.17;;
3995;SDS011;2012;49.794;9.722;2023-03-17T15:10:24;3.63;;;2.73;;
3995;SDS011;2012;49.794;9.722;2023-03-17T15:12:59;10.00;;;3.57;;
3995;SDS011;2012;49.794;9.722;2023-03-17T15:15:28;5.00;;;2.97;;
3995;SDS011;2012;49.794;9.722;2023-03-17T15:17:59;7.03;;;3.13;;
3995;SDS011;2012;49.794;9.722;2023-03-17T15:20:32;9.80;;;2.50;;
3995;SDS011;2012;49.794;9.722;2023-03-17T15:23:04;6.23;;;3.27;;
3995;SDS011;2012;49.794;9.722;2023-03-17T15:25:42;3.80;;;2.87;;
3995;SDS011;2012;49.794;9.722;2023-03-17T15:28:15;3.60;;;2.77;;
3995;SDS011;2012;49.794;9.722;2023-03-17T15:30:44;3.20;;;2.57;;
3995;SDS011;2012;49.794;9.722;2023-03-17T15:36:01;3.17;;;2.80;;
3995;SDS011;2012;49.794;9.722;2023-03-17T15:38:29;8.73;;;3.80;;
3995;SDS011;2012;49.794;9.722;2023-03-17T15:40:57;3.10;;;2.47;;
3995;SDS011;2012;49.794;9.722;2023-03-17T15:43:23;7.83;;;3.23;;
3995;SDS011;2012;49.794;9.722;2023-03-17T15:45:53;5.40;;;2.60;;
3995;SDS011;2012;49.794;9.722;2023-03-17T15:48:25;3.17;;;2.40;;
3995;SDS011;2012;49.794;9.722;2023-03-17T15:50:53;11.00;;;3.67;;
3995;SDS011;2012;49.794;9.722;2023-03-17T15:53:21;8.37;;;4.03;;
3995;SDS011;2012;49.794;9.722;2023-03-17T15:55:48;5.80;;;3.60;;
3995;SDS011;2012;49.794;9.722;2023-03-17T15:58:15;6.50;;;3.53;;
3995;SDS011;2012;49.794;9.722;2023-03-17T16:00:42;6.90;;;3.30;;
3995;SDS011;2012;49.794;9.722;2023-03-17T16:03:17;7.23;;;3.10;;
3995;SDS011;2012;49.794;9.722;2023-03-17T16:05:54;20.60;;;6.70;;
3995;SDS011;2012;49.794;9.722;2023-03-17T16:08:20;6.57;;;3.20;;
3995;SDS011;2012;49.794;9.722;2023-03-17T16:10:47;21.47;;;6.53;;
3995;SDS011;2012;49.794;9.722;2023-03-17T16:13:14;17.20;;;5.47;;
3995;SDS011;2012;49.794;9.722;2023-03-17T16:15:41;15.70;;;5.70;;
3995;SDS011;2012;49.794;9.722;2023-03-17T16:18:13;7.17;;;3.90;;
3995;SDS011;2012;49.794;9.722;2023-03-17T16:20:47;5.43;;;2.70;;
3995;SDS011;2012;49.794;9.722;2023-03-17T16:23:17;5.63;;;2.57;;
3995;SDS011;2012;49.794;9.722;2023-03-17T16:25:47;7.57;;;2.73;;
3995;SDS011;2012;49.794;9.722;2023-03-17T16:30:48;55.00;;;7.23;;
3995;SDS011;2012;49.794;9.722;2023-03-17T16:35:48;8.37;;;4.73;;
3995;SDS011;2012;49.794;9.722;2023-03-17T16:38:16;16.60;;;5.97;;
3995;SDS011;2012;49.794;9.722;2023-03-17T16:40:45;37.33;;;11.20;;
3995;SDS011;2012;49.794;9.722;2023-03-17T16:43:17;20.43;;;5.90;;
3995;SDS011;2012;49.794;9.722;2023-03-17T16:45:51;13.40;;;4.17;;
3995;SDS011;2012;49.794;9.722;2023-03-17T16:48:19;14.13;;;3.73;;
3995;SDS011;2012;49.794;9.722;2023-03-17T16:50:46;9.97;;;4.57;;
3995;SDS011;2012;49.794;9.722;2023-03-17T16:53:13;9.20;;;3.40;;
3995;SDS011;2012;49.794;9.722;2023-03-17T16:55:40;10.50;;;3.33;;
3995;SDS011;2012;49.794;9.722;2023-03-17T16:58:15;7.33;;;3.33;;